sensor_id;sensor_type;location;lat;lon;timestamp;pressure;altitude;pressure_sealevel;temperature;humidity
23417;BME280;11881;42.432;25.632;2023-12-14T00:01:17;98486.47;;;7.44;100.00
23417;BME280;11881;42.432;25.632;2023-12-14T00:03:42;98481.16;;;7.44;100.00
23417;BME280;11881;42.432;25.632;2023-12-14T00:06:11;98491.34;;;7.39;100.00
23417;BME280;11881;42.432;25.632;2023-12-14T00:08:37;98494.53;;;7.53;100.00
23417;BME280;11881;42.432;25.632;2023-12-14T00:11:06;98504.00;;;7.36;100.00
23417;BME280;11881;42.432;25.632;2023-12-14T00:13:33;98500.56;;;7.45;100.00
23417;BME280;11881;42.432;25.632;2023-12-14T00:15:58;98513.09;;;7.43;100.00
23417;BME280;11881;42.432;25.632;2023-12-14T00:18:24;98503.59;;;7.40;100.00
23417;BME280;11881;42.432;25.632;2023-12-14T00:20:50;98503.47;;;7.42;100.00
23417;BME280;11881;42.432;25.632;2023-12-14T00:23:16;98510.03;;;7.38;100.00
23417;BME280;11881;42.432;25.632;2023-12-14T00:25:42;98518.13;;;7.36;100.00
23417;BME280;11881;42.432;25.632;2023-12-14T00:28:07;98516.72;;;7.32;100.00
23417;BME280;11881;42.432;25.632;2023-12-14T00:30:32;98523.94;;;7.20;100.00
23417;BME280;11881;42.432;25.632;2023-12-14T00:32:58;98527.97;;;7.25;100.00
23417;BME280;11881;42.432;25.632;2023-12-14T00:35:23;98543.63;;;7.28;100.00
23417;BME280;11881;42.432;25.632;2023-12-14T00:37:49;98535.09;;;7.24;100.00
23417;BME280;11881;42.432;25.632;2023-12-14T00:40:14;98522.69;;;7.15;100.00
23417;BME280;11881;42.432;25.632;2023-12-14T00:42:40;98505.41;;;7.20;100.00
23417;BME280;11881;42.432;25.632;2023-12-14T00:45:06;98504.03;;;7.26;100.00
23417;BME280;11881;42.432;25.632;2023-12-14T00:47:31;98509.44;;;7.25;100.00
23417;BME280;11881;42.432;25.632;2023-12-14T00:49:57;98515.03;;;7.22;100.00
23417;BME280;11881;42.432;25.632;2023-12-14T00:52:22;98522.16;;;7.31;100.00
23417;BME280;11881;42.432;25.632;2023-12-14T00:54:48;98517.81;;;7.30;100.00
23417;BME280;11881;42.432;25.632;2023-12-14T00:57:13;98520.19;;;7.33;100.00
23417;BME280;11881;42.432;25.632;2023-12-14T00:59:39;98504.88;;;7.36;100.00
23417;BME280;11881;42.432;25.632;2023-12-14T01:02:05;98514.22;;;7.31;100.00
23417;BME280;11881;42.432;25.632;2023-12-14T01:04:31;98516.41;;;7.16;100.00
23417;BME280;11881;42.432;25.632;2023-12-14T01:06:57;98517.56;;;7.33;100.00
23417;BME280;11881;42.432;25.632;2023-12-14T01:09:22;98498.84;;;7.34;100.00
23417;BME280;11881;42.432;25.632;2023-12-14T01:11:48;98502.63;;;7.32;100.00
23417;BME280;11881;42.432;25.632;2023-12-14T01:14:13;98500.97;;;7.40;100.00
23417;BME280;11881;42.432;25.632;2023-12-14T01:16:39;98481.44;;;7.41;100.00
23417;BME280;11881;42.432;25.632;2023-12-14T01:19:04;98488.66;;;7.30;100.00
23417;BME280;11881;42.432;25.632;2023-12-14T01:21:31;98499.09;;;7.02;100.00
23417;BME280;11881;42.432;25.632;2023-12-14T01:23:57;98490.91;;;7.15;100.00
23417;BME280;11881;42.432;25.632;2023-12-14T01:26:23;98483.38;;;7.20;100.00
23417;BME280;11881;42.432;25.632;2023-12-14T01:28:48;98469.03;;;7.32;100.00
23417;BME280;11881;42.432;25.632;2023-12-14T01:31:14;98472.47;;;7.04;100.00
23417;BME280;11881;42.432;25.632;2023-12-14T01:33:39;98464.28;;;7.26;100.00
23417;BME280;11881;42.432;25.632;2023-12-14T01:36:05;98451.56;;;7.30;100.00
23417;BME280;11881;42.432;25.632;2023-12-14T01:38:30;98452.72;;;7.37;100.00
23417;BME280;11881;42.432;25.632;2023-12-14T01:40:56;98455.22;;;7.29;100.00
23417;BME280;11881;42.432;25.632;2023-12-14T01:43:21;98451.03;;;7.26;100.00
23417;BME280;11881;42.432;25.632;2023-12-14T01:45:47;98443.19;;;7.25;100.00
23417;BME280;11881;42.432;25.632;2023-12-14T01:48:13;98447.81;;;7.23;100.00
23417;BME280;11881;42.432;25.632;2023-12-14T01:50:38;98440.41;;;7.16;100.00
23417;BME280;11881;42.432;25.632;2023-12-14T01:53:04;98449.47;;;7.04;100.00
23417;BME280;11881;42.432;25.632;2023-12-14T01:55:29;98454.66;;;7.15;100.00
23417;BME280;11881;42.432;25.632;2023-12-14T01:57:55;98461.59;;;7.07;100.00
23417;BME280;11881;42.432;25.632;2023-12-14T02:00:49;98462.38;;;6.88;100.00
23417;BME280;11881;42.432;25.632;2023-12-14T02:03:17;98460.47;;;7.00;100.00
23417;BME280;11881;42.432;25.632;2023-12-14T02:05:42;98457.94;;;6.88;100.00
23417;BME280;11881;42.432;25.632;2023-12-14T02:08:08;98472.91;;;7.09;100.00
23417;BME280;11881;42.432;25.632;2023-12-14T02:10:34;98457.84;;;7.29;100.00
23417;BME280;11881;42.432;25.632;2023-12-14T02:13:02;98471.81;;;7.21;100.00
23417;BME280;11881;42.432;25.632;2023-12-14T02:15:27;98472.34;;;7.15;100.00
23417;BME280;11881;42.432;25.632;2023-12-14T02:17:53;98466.34;;;7.23;100.00
23417;BME280;11881;42.432;25.632;2023-12-14T02:20:18;98462.63;;;7.25;100.00
23417;BME280;11881;42.432;25.632;2023-12-14T02:22:54;98450.19;;;7.26;100.00
23417;BME280;11881;42.432;25.632;2023-12-14T02:25:21;98439.44;;;7.17;100.00
23417;BME280;11881;42.432;25.632;2023-12-14T02:27:47;98458.22;;;6.95;100.00
23417;BME280;11881;42.432;25.632;2023-12-14T02:30:14;98453.97;;;7.13;100.00
23417;BME280;11881;42.432;25.632;2023-12-14T02:32:40;98445.41;;;7.00;100.00
23417;BME280;11881;42.432;25.632;2023-12-14T02:35:06;98442.22;;;7.16;100.00
23417;BME280;11881;42.432;25.632;2023-12-14T02:37:33;98439.44;;;7.17;100.00
23417;BME280;11881;42.432;25.632;2023-12-14T02:39:59;98446.69;;;7.06;100.00
23417;BME280;11881;42.432;25.632;2023-12-14T02:42:24;98454.19;;;6.91;100.00
23417;BME280;11881;42.432;25.632;2023-12-14T02:44:50;98453.38;;;7.10;100.00
23417;BME280;11881;42.432;25.632;2023-12-14T02:47:16;98464.13;;;7.08;100.00
23417;BME280;11881;42.432;25.632;2023-12-14T02:49:42;98458.28;;;7.14;100.00
23417;BME280;11881;42.432;25.632;2023-12-14T02:52:08;98472.59;;;7.12;100.00
23417;BME280;11881;42.432;25.632;2023-12-14T02:54:33;98464.94;;;7.18;100.00
23417;BME280;11881;42.432;25.632;2023-12-14T02:56:59;98473.31;;;7.04;100.00
23417;BME280;11881;42.432;25.632;2023-12-14T02:59:24;98459.25;;;7.13;100.00
23417;BME280;11881;42.432;25.632;2023-12-14T03:01:50;98459.66;;;7.18;100.00
23417;BME280;11881;42.432;25.632;2023-12-14T03:04:15;98461.03;;;7.13;100.00
23417;BME280;11881;42.432;25.632;2023-12-14T03:06:41;98463.84;;;7.21;100.00
23417;BME280;11881;42.432;25.632;2023-12-14T03:09:06;98457.00;;;7.18;100.00
23417;BME280;11881;42.432;25.632;2023-12-14T03:11:32;98451.84;;;7.17;100.00
23417;BME280;11881;42.432;25.632;2023-12-14T03:13:57;98455.91;;;7.21;100.00
23417;BME280;11881;42.432;25.632;2023-12-14T03:16:23;98445.03;;;7.24;100.00
23417;BME280;11881;42.432;25.632;2023-12-14T03:18:48;98449.91;;;7.29;100.00
23417;BME280;11881;42.432;25.632;2023-12-14T03:21:18;98443.78;;;7.28;100.00
23417;BME280;11881;42.432;25.632;2023-12-14T03:23:43;98439.72;;;7.34;100.00
23417;BME280;11881;42.432;25.632;2023-12-14T03:26:09;98445.59;;;7.28;100.00
23417;BME280;11881;42.432;25.632;2023-12-14T03:28:34;98434.72;;;7.31;100.00
23417;BME280;11881;42.432;25.632;2023-12-14T03:31:00;98436.81;;;7.27;100.00
23417;BME280;11881;42.432;25.632;2023-12-14T03:33:26;98434.31;;;7.26;100.00
23417;BME280;11881;42.432;25.632;2023-12-14T03:35:51;98433.34;;;7.36;100.00
23417;BME280;11881;42.432;25.632;2023-12-14T03:38:17;98443.78;;;7.38;100.00
23417;BME280;11881;42.432;25.632;2023-12-14T03:40:42;98446.28;;;7.10;100.00
23417;BME280;11881;42.432;25.632;2023-12-14T03:43:08;98443.16;;;6.96;100.00
23417;BME280;11881;42.432;25.632;2023-12-14T03:45:33;98446.53;;;6.98;100.00
23417;BME280;11881;42.432;25.632;2023-12-14T03:47:58;98441.50;;;6.94;100.00
23417;BME280;11881;42.432;25.632;2023-12-14T03:50:24;98444.31;;;7.12;100.00
23417;BME280;11881;42.432;25.632;2023-12-14T03:52:49;98443.13;;;6.76;100.00
23417;BME280;11881;42.432;25.632;2023-12-14T03:55:15;98447.56;;;6.66;100.00
23417;BME280;11881;42.432;25.632;2023-12-14T03:57:41;98453.31;;;6.81;100.00
23417;BME280;11881;42.432;25.632;2023-12-14T04:00:11;98454.59;;;6.86;100.00
23417;BME280;11881;42.432;25.632;2023-12-14T04:02:38;98451.94;;;6.86;100.00
23417;BME280;11881;42.432;25.632;2023-12-14T04:05:05;98458.13;;;6.66;100.00
23417;BME280;11881;42.432;25.632;2023-12-14T04:07:31;98467.00;;;6.86;100.00
23417;BME280;11881;42.432;25.632;2023-12-14T04:09:56;98458.56;;;6.71;100.00
23417;BME280;11881;42.432;25.632;2023-12-14T04:12:22;98451.81;;;6.88;100.00
23417;BME280;11881;42.432;25.632;2023-12-14T04:14:47;98463.50;;;6.95;100.00
23417;BME280;11881;42.432;25.632;2023-12-14T04:17:13;98469.06;;;6.82;100.00
23417;BME280;11881;42.432;25.632;2023-12-14T04:19:39;98476.59;;;6.87;100.00
23417;BME280;11881;42.432;25.632;2023-12-14T04:22:05;98485.78;;;6.73;100.00
23417;BME280;11881;42.432;25.632;2023-12-14T04:24:31;98460.13;;;6.74;100.00
23417;BME280;11881;42.432;25.632;2023-12-14T04:26:56;98451.72;;;6.59;100.00
23417;BME280;11881;42.432;25.632;2023-12-14T04:29:22;98461.38;;;6.70;100.00
23417;BME280;11881;42.432;25.632;2023-12-14T04:31:47;98462.44;;;6.57;100.00
23417;BME280;11881;42.432;25.632;2023-12-14T04:34:13;98449.25;;;6.77;100.00
23417;BME280;11881;42.432;25.632;2023-12-14T04:36:42;98462.09;;;6.81;100.00
23417;BME280;11881;42.432;25.632;2023-12-14T04:39:07;98465.81;;;6.69;100.00
23417;BME280;11881;42.432;25.632;2023-12-14T04:41:33;98466.69;;;6.79;100.00
23417;BME280;11881;42.432;25.632;2023-12-14T04:43:58;98465.31;;;6.94;100.00
23417;BME280;11881;42.432;25.632;2023-12-14T04:46:24;98462.94;;;6.82;100.00
23417;BME280;11881;42.432;25.632;2023-12-14T04:48:49;98458.03;;;6.68;100.00
23417;BME280;11881;42.432;25.632;2023-12-14T04:51:15;98456.13;;;6.79;100.00
23417;BME280;11881;42.432;25.632;2023-12-14T04:53:40;98466.00;;;6.47;100.00
23417;BME280;11881;42.432;25.632;2023-12-14T04:56:10;98463.81;;;6.52;100.00
23417;BME280;11881;42.432;25.632;2023-12-14T04:58:37;98465.78;;;6.59;100.00
23417;BME280;11881;42.432;25.632;2023-12-14T05:01:02;98465.25;;;6.65;100.00
23417;BME280;11881;42.432;25.632;2023-12-14T05:03:28;98462.31;;;6.59;100.00
23417;BME280;11881;42.432;25.632;2023-12-14T05:05:54;98464.81;;;6.60;100.00
23417;BME280;11881;42.432;25.632;2023-12-14T05:08:19;98477.25;;;6.70;100.00
23417;BME280;11881;42.432;25.632;2023-12-14T05:10:44;98453.69;;;6.66;100.00
23417;BME280;11881;42.432;25.632;2023-12-14T05:13:10;98452.31;;;6.72;100.00
23417;BME280;11881;42.432;25.632;2023-12-14T05:15:35;98453.38;;;6.60;100.00
23417;BME280;11881;42.432;25.632;2023-12-14T05:18:01;98443.03;;;6.47;100.00
23417;BME280;11881;42.432;25.632;2023-12-14T05:20:26;98437.06;;;6.55;100.00
23417;BME280;11881;42.432;25.632;2023-12-14T05:22:52;98450.53;;;6.42;100.00
23417;BME280;11881;42.432;25.632;2023-12-14T05:25:17;98451.84;;;6.57;100.00
23417;BME280;11881;42.432;25.632;2023-12-14T05:27:43;98449.38;;;6.65;100.00
23417;BME280;11881;42.432;25.632;2023-12-14T05:30:09;98447.09;;;6.51;100.00
23417;BME280;11881;42.432;25.632;2023-12-14T05:32:35;98447.97;;;6.31;100.00
23417;BME280;11881;42.432;25.632;2023-12-14T05:35:00;98447.50;;;6.47;100.00
23417;BME280;11881;42.432;25.632;2023-12-14T05:37:26;98442.53;;;6.63;100.00
23417;BME280;11881;42.432;25.632;2023-12-14T05:39:51;98437.50;;;6.50;100.00
23417;BME280;11881;42.432;25.632;2023-12-14T05:42:17;98432.19;;;6.50;100.00
23417;BME280;11881;42.432;25.632;2023-12-14T05:44:43;98422.41;;;6.41;100.00
23417;BME280;11881;42.432;25.632;2023-12-14T05:47:10;98432.31;;;6.49;100.00
23417;BME280;11881;42.432;25.632;2023-12-14T05:49:36;98438.97;;;6.43;100.00
23417;BME280;11881;42.432;25.632;2023-12-14T05:52:02;98430.66;;;6.48;100.00
23417;BME280;11881;42.432;25.632;2023-12-14T05:54:28;98434.09;;;6.38;100.00
23417;BME280;11881;42.432;25.632;2023-12-14T05:56:54;98433.44;;;6.46;100.00
23417;BME280;11881;42.432;25.632;2023-12-14T05:59:19;98425.09;;;6.51;100.00
23417;BME280;11881;42.432;25.632;2023-12-14T06:01:45;98427.88;;;6.19;100.00
23417;BME280;11881;42.432;25.632;2023-12-14T06:04:10;98439.25;;;6.09;100.00
23417;BME280;11881;42.432;25.632;2023-12-14T06:06:38;98451.88;;;6.27;100.00
23417;BME280;11881;42.432;25.632;2023-12-14T06:09:04;98445.00;;;6.55;100.00
23417;BME280;11881;42.432;25.632;2023-12-14T06:11:32;98456.06;;;6.70;100.00
23417;BME280;11881;42.432;25.632;2023-12-14T06:13:58;98455.19;;;6.59;100.00
23417;BME280;11881;42.432;25.632;2023-12-14T06:16:25;98455.59;;;6.55;100.00
23417;BME280;11881;42.432;25.632;2023-12-14T06:18:50;98460.34;;;6.61;100.00
23417;BME280;11881;42.432;25.632;2023-12-14T06:21:16;98454.09;;;6.62;100.00
23417;BME280;11881;42.432;25.632;2023-12-14T06:23:41;98458.97;;;6.66;100.00
23417;BME280;11881;42.432;25.632;2023-12-14T06:26:07;98460.69;;;6.77;100.00
23417;BME280;11881;42.432;25.632;2023-12-14T06:28:32;98455.69;;;6.74;100.00
23417;BME280;11881;42.432;25.632;2023-12-14T06:30:58;98461.50;;;6.68;100.00
23417;BME280;11881;42.432;25.632;2023-12-14T06:33:23;98470.72;;;6.74;100.00
23417;BME280;11881;42.432;25.632;2023-12-14T06:35:49;98479.75;;;6.61;100.00
23417;BME280;11881;42.432;25.632;2023-12-14T06:38:15;98480.38;;;6.94;100.00
23417;BME280;11881;42.432;25.632;2023-12-14T06:40:40;98477.97;;;6.81;100.00
23417;BME280;11881;42.432;25.632;2023-12-14T06:43:06;98480.25;;;7.05;100.00
23417;BME280;11881;42.432;25.632;2023-12-14T06:45:31;98470.78;;;7.12;100.00
23417;BME280;11881;42.432;25.632;2023-12-14T06:47:57;98471.88;;;7.00;100.00
23417;BME280;11881;42.432;25.632;2023-12-14T06:50:22;98470.25;;;7.18;100.00
23417;BME280;11881;42.432;25.632;2023-12-14T06:52:48;98480.84;;;7.18;100.00
23417;BME280;11881;42.432;25.632;2023-12-14T06:55:14;98481.72;;;7.19;100.00
23417;BME280;11881;42.432;25.632;2023-12-14T06:57:43;98473.63;;;7.20;100.00
23417;BME280;11881;42.432;25.632;2023-12-14T07:00:09;98477.38;;;7.28;100.00
23417;BME280;11881;42.432;25.632;2023-12-14T07:02:35;98483.09;;;7.33;100.00
23417;BME280;11881;42.432;25.632;2023-12-14T07:05:00;98474.72;;;7.28;100.00
23417;BME280;11881;42.432;25.632;2023-12-14T07:07:26;98482.41;;;7.31;100.00
23417;BME280;11881;42.432;25.632;2023-12-14T07:09:51;98482.28;;;7.52;100.00
23417;BME280;11881;42.432;25.632;2023-12-14T07:12:17;98479.91;;;7.68;100.00
23417;BME280;11881;42.432;25.632;2023-12-14T07:14:43;98478.66;;;7.62;100.00
23417;BME280;11881;42.432;25.632;2023-12-14T07:17:08;98474.03;;;7.64;100.00
23417;BME280;11881;42.432;25.632;2023-12-14T07:19:34;98475.72;;;7.75;100.00
23417;BME280;11881;42.432;25.632;2023-12-14T07:22:01;98478.78;;;7.80;100.00
23417;BME280;11881;42.432;25.632;2023-12-14T07:24:26;98470.09;;;7.88;100.00
23417;BME280;11881;42.432;25.632;2023-12-14T07:26:52;98476.97;;;7.90;100.00
23417;BME280;11881;42.432;25.632;2023-12-14T07:29:17;98485.03;;;7.98;100.00
23417;BME280;11881;42.432;25.632;2023-12-14T07:31:42;98485.06;;;7.89;100.00
23417;BME280;11881;42.432;25.632;2023-12-14T07:34:08;98489.91;;;8.03;100.00
23417;BME280;11881;42.432;25.632;2023-12-14T07:36:33;98496.06;;;8.13;100.00
23417;BME280;11881;42.432;25.632;2023-12-14T07:38:59;98496.88;;;8.14;100.00
23417;BME280;11881;42.432;25.632;2023-12-14T07:41:26;98497.16;;;8.20;100.00
23417;BME280;11881;42.432;25.632;2023-12-14T07:43:55;98495.44;;;8.29;100.00
23417;BME280;11881;42.432;25.632;2023-12-14T07:46:21;98496.69;;;8.35;100.00
23417;BME280;11881;42.432;25.632;2023-12-14T07:48:47;98486.75;;;8.46;100.00
23417;BME280;11881;42.432;25.632;2023-12-14T07:51:12;98500.19;;;8.35;100.00
23417;BME280;11881;42.432;25.632;2023-12-14T07:53:38;98498.09;;;8.39;100.00
23417;BME280;11881;42.432;25.632;2023-12-14T07:56:04;98487.47;;;8.48;100.00
23417;BME280;11881;42.432;25.632;2023-12-14T07:58:30;98487.44;;;8.58;100.00
23417;BME280;11881;42.432;25.632;2023-12-14T08:00:55;98482.22;;;8.66;100.00
23417;BME280;11881;42.432;25.632;2023-12-14T08:03:21;98495.34;;;8.68;100.00
23417;BME280;11881;42.432;25.632;2023-12-14T08:05:47;98495.84;;;8.81;100.00
23417;BME280;11881;42.432;25.632;2023-12-14T08:08:12;98486.09;;;8.82;100.00
23417;BME280;11881;42.432;25.632;2023-12-14T08:10:38;98491.09;;;8.85;100.00
23417;BME280;11881;42.432;25.632;2023-12-14T08:13:03;98496.03;;;8.97;100.00
23417;BME280;11881;42.432;25.632;2023-12-14T08:15:29;98495.75;;;9.00;100.00
23417;BME280;11881;42.432;25.632;2023-12-14T08:17:55;98500.75;;;9.03;100.00
23417;BME280;11881;42.432;25.632;2023-12-14T08:20:21;98498.91;;;9.14;100.00
23417;BME280;11881;42.432;25.632;2023-12-14T08:22:47;98493.31;;;9.17;100.00
23417;BME280;11881;42.432;25.632;2023-12-14T08:25:13;98506.88;;;9.14;100.00
23417;BME280;11881;42.432;25.632;2023-12-14T08:27:40;98500.28;;;9.18;100.00
23417;BME280;11881;42.432;25.632;2023-12-14T08:30:06;98502.59;;;9.03;100.00
23417;BME280;11881;42.432;25.632;2023-12-14T08:32:31;98499.72;;;9.14;100.00
23417;BME280;11881;42.432;25.632;2023-12-14T08:34:57;98503.13;;;9.06;100.00
23417;BME280;11881;42.432;25.632;2023-12-14T08:37:22;98511.19;;;9.15;100.00
23417;BME280;11881;42.432;25.632;2023-12-14T08:39:47;98510.94;;;9.08;100.00
23417;BME280;11881;42.432;25.632;2023-12-14T08:42:13;98509.72;;;9.02;100.00
23417;BME280;11881;42.432;25.632;2023-12-14T08:44:39;98506.63;;;9.07;100.00
23417;BME280;11881;42.432;25.632;2023-12-14T08:47:05;98510.72;;;9.01;100.00
23417;BME280;11881;42.432;25.632;2023-12-14T08:49:31;98510.25;;;8.78;100.00
23417;BME280;11881;42.432;25.632;2023-12-14T08:51:56;98518.13;;;8.98;100.00
23417;BME280;11881;42.432;25.632;2023-12-14T08:54:22;98520.34;;;9.02;100.00
23417;BME280;11881;42.432;25.632;2023-12-14T08:56:47;98514.00;;;9.13;100.00
23417;BME280;11881;42.432;25.632;2023-12-14T08:59:13;98498.13;;;9.21;100.00
23417;BME280;11881;42.432;25.632;2023-12-14T09:01:39;98486.56;;;9.22;100.00
23417;BME280;11881;42.432;25.632;2023-12-14T09:04:04;98487.50;;;9.21;100.00
23417;BME280;11881;42.432;25.632;2023-12-14T09:06:30;98496.19;;;9.23;100.00
23417;BME280;11881;42.432;25.632;2023-12-14T09:08:55;98485.69;;;9.22;100.00
23417;BME280;11881;42.432;25.632;2023-12-14T09:11:21;98483.94;;;9.13;100.00
23417;BME280;11881;42.432;25.632;2023-12-14T09:13:46;98485.94;;;9.28;100.00
23417;BME280;11881;42.432;25.632;2023-12-14T09:16:12;98481.69;;;9.36;100.00
23417;BME280;11881;42.432;25.632;2023-12-14T09:18:38;98478.22;;;9.53;100.00
23417;BME280;11881;42.432;25.632;2023-12-14T09:21:03;98466.81;;;9.60;100.00
23417;BME280;11881;42.432;25.632;2023-12-14T09:23:29;98452.50;;;9.62;100.00
23417;BME280;11881;42.432;25.632;2023-12-14T09:25:55;98455.50;;;9.58;100.00
23417;BME280;11881;42.432;25.632;2023-12-14T09:28:21;98461.63;;;9.77;100.00
23417;BME280;11881;42.432;25.632;2023-12-14T09:30:47;98447.13;;;9.71;100.00
23417;BME280;11881;42.432;25.632;2023-12-14T09:33:12;98447.03;;;9.81;100.00
23417;BME280;11881;42.432;25.632;2023-12-14T09:35:38;98449.84;;;9.79;100.00
23417;BME280;11881;42.432;25.632;2023-12-14T09:38:05;98448.13;;;9.96;100.00
23417;BME280;11881;42.432;25.632;2023-12-14T09:40:31;98449.66;;;9.99;100.00
23417;BME280;11881;42.432;25.632;2023-12-14T09:42:57;98447.50;;;10.02;100.00
23417;BME280;11881;42.432;25.632;2023-12-14T09:45:28;98446.97;;;10.17;100.00
23417;BME280;11881;42.432;25.632;2023-12-14T09:47:57;98453.66;;;10.21;100.00
23417;BME280;11881;42.432;25.632;2023-12-14T09:50:25;98447.59;;;10.36;100.00
23417;BME280;11881;42.432;25.632;2023-12-14T09:52:50;98449.59;;;10.34;100.00
23417;BME280;11881;42.432;25.632;2023-12-14T09:55:16;98444.28;;;10.43;100.00
23417;BME280;11881;42.432;25.632;2023-12-14T09:57:42;98441.88;;;10.57;100.00
23417;BME280;11881;42.432;25.632;2023-12-14T10:00:08;98447.72;;;10.61;100.00
23417;BME280;11881;42.432;25.632;2023-12-14T10:02:39;98426.97;;;10.73;100.00
23417;BME280;11881;42.432;25.632;2023-12-14T10:05:09;98425.69;;;10.85;100.00
23417;BME280;11881;42.432;25.632;2023-12-14T10:07:42;98436.84;;;10.88;100.00
23417;BME280;11881;42.432;25.632;2023-12-14T10:10:12;98427.00;;;10.89;100.00
23417;BME280;11881;42.432;25.632;2023-12-14T10:12:54;98438.38;;;10.99;100.00
23417;BME280;11881;42.432;25.632;2023-12-14T10:15:20;98441.53;;;10.95;100.00
23417;BME280;11881;42.432;25.632;2023-12-14T10:17:51;98436.72;;;11.06;100.00
23417;BME280;11881;42.432;25.632;2023-12-14T10:20:22;98427.72;;;10.91;100.00
23417;BME280;11881;42.432;25.632;2023-12-14T10:22:49;98432.50;;;10.87;100.00
23417;BME280;11881;42.432;25.632;2023-12-14T10:25:15;98428.34;;;10.85;100.00
23417;BME280;11881;42.432;25.632;2023-12-14T10:27:50;98426.22;;;10.97;100.00
23417;BME280;11881;42.432;25.632;2023-12-14T10:30:18;98421.78;;;11.13;100.00
23417;BME280;11881;42.432;25.632;2023-12-14T10:32:47;98410.78;;;11.33;100.00
23417;BME280;11881;42.432;25.632;2023-12-14T10:35:14;98406.63;;;11.63;100.00
23417;BME280;11881;42.432;25.632;2023-12-14T10:37:42;98400.66;;;11.77;100.00
23417;BME280;11881;42.432;25.632;2023-12-14T10:40:09;98389.16;;;11.85;100.00
23417;BME280;11881;42.432;25.632;2023-12-14T10:42:36;98389.63;;;11.96;100.00
23417;BME280;11881;42.432;25.632;2023-12-14T10:45:03;98396.63;;;11.97;100.00
23417;BME280;11881;42.432;25.632;2023-12-14T10:47:29;98402.59;;;12.16;100.00
23417;BME280;11881;42.432;25.632;2023-12-14T10:49:55;98393.53;;;12.33;100.00
23417;BME280;11881;42.432;25.632;2023-12-14T10:52:22;98386.22;;;12.35;100.00
23417;BME280;11881;42.432;25.632;2023-12-14T10:54:56;98385.34;;;12.35;100.00
23417;BME280;11881;42.432;25.632;2023-12-14T10:57:23;98383.22;;;12.30;100.00
23417;BME280;11881;42.432;25.632;2023-12-14T10:59:49;98383.31;;;12.45;100.00
23417;BME280;11881;42.432;25.632;2023-12-14T11:02:15;98372.44;;;12.46;100.00
23417;BME280;11881;42.432;25.632;2023-12-14T11:04:57;98368.50;;;12.34;100.00
23417;BME280;11881;42.432;25.632;2023-12-14T11:10:11;98372.41;;;12.23;100.00
23417;BME280;11881;42.432;25.632;2023-12-14T11:12:37;98353.28;;;12.35;100.00
23417;BME280;11881;42.432;25.632;2023-12-14T11:15:05;98359.31;;;12.37;100.00
23417;BME280;11881;42.432;25.632;2023-12-14T11:17:30;98361.63;;;12.40;100.00
23417;BME280;11881;42.432;25.632;2023-12-14T11:19:56;98363.78;;;12.44;100.00
23417;BME280;11881;42.432;25.632;2023-12-14T11:22:27;98358.13;;;12.39;100.00
23417;BME280;11881;42.432;25.632;2023-12-14T11:24:56;98361.63;;;12.40;100.00
23417;BME280;11881;42.432;25.632;2023-12-14T11:27:30;98353.59;;;12.48;100.00
23417;BME280;11881;42.432;25.632;2023-12-14T11:29:56;98356.75;;;12.51;100.00
23417;BME280;11881;42.432;25.632;2023-12-14T11:32:24;98352.38;;;12.59;100.00
23417;BME280;11881;42.432;25.632;2023-12-14T11:34:50;98346.50;;;12.63;100.00
23417;BME280;11881;42.432;25.632;2023-12-14T11:37:15;98337.66;;;12.63;100.00
23417;BME280;11881;42.432;25.632;2023-12-14T11:39:41;98337.13;;;12.67;100.00
23417;BME280;11881;42.432;25.632;2023-12-14T11:42:06;98332.44;;;12.69;100.00
23417;BME280;11881;42.432;25.632;2023-12-14T11:44:34;98330.47;;;12.63;100.00
23417;BME280;11881;42.432;25.632;2023-12-14T11:47:00;98333.84;;;12.57;100.00
23417;BME280;11881;42.432;25.632;2023-12-14T11:49:26;98333.06;;;12.48;100.00
23417;BME280;11881;42.432;25.632;2023-12-14T11:51:54;98335.81;;;12.63;100.00
23417;BME280;11881;42.432;25.632;2023-12-14T11:54:20;98333.81;;;12.65;100.00
23417;BME280;11881;42.432;25.632;2023-12-14T11:56:50;98337.50;;;12.64;100.00
23417;BME280;11881;42.432;25.632;2023-12-14T11:59:16;98337.66;;;12.63;100.00
23417;BME280;11881;42.432;25.632;2023-12-14T12:01:58;98336.63;;;12.64;100.00
23417;BME280;11881;42.432;25.632;2023-12-14T12:04:24;98331.66;;;12.61;100.00
23417;BME280;11881;42.432;25.632;2023-12-14T12:07:02;98322.44;;;12.63;100.00
23417;BME280;11881;42.432;25.632;2023-12-14T12:09:48;98323.00;;;12.59;100.00
23417;BME280;11881;42.432;25.632;2023-12-14T12:12:13;98306.47;;;12.55;100.00
23417;BME280;11881;42.432;25.632;2023-12-14T12:14:40;98315.97;;;12.58;100.00
23417;BME280;11881;42.432;25.632;2023-12-14T12:17:06;98307.78;;;12.59;100.00
23417;BME280;11881;42.432;25.632;2023-12-14T12:19:36;98312.16;;;12.52;100.00
23417;BME280;11881;42.432;25.632;2023-12-14T12:22:02;98316.34;;;12.55;100.00
23417;BME280;11881;42.432;25.632;2023-12-14T12:24:28;98321.50;;;12.56;100.00
23417;BME280;11881;42.432;25.632;2023-12-14T12:26:54;98320.97;;;12.61;100.00
23417;BME280;11881;42.432;25.632;2023-12-14T12:29:21;98308.97;;;12.57;100.00
23417;BME280;11881;42.432;25.632;2023-12-14T12:31:46;98320.22;;;12.44;100.00
23417;BME280;11881;42.432;25.632;2023-12-14T12:34:12;98320.72;;;12.47;100.00
23417;BME280;11881;42.432;25.632;2023-12-14T12:36:37;98317.47;;;12.60;100.00
23417;BME280;11881;42.432;25.632;2023-12-14T12:39:03;98331.56;;;12.46;100.00
23417;BME280;11881;42.432;25.632;2023-12-14T12:41:34;98323.91;;;12.43;100.00
23417;BME280;11881;42.432;25.632;2023-12-14T12:44:00;98323.53;;;12.46;100.00
23417;BME280;11881;42.432;25.632;2023-12-14T12:46:37;98324.03;;;12.49;100.00